sensor_id;sensor_type;location;lat;lon;timestamp;P1;durP1;ratioP1;P2;durP2;ratioP2
64075;SDS011;50327;51.328;12.324;2023-11-19T00:01:43;8.10;;;3.75;;
64075;SDS011;50327;51.328;12.324;2023-11-19T00:04:08;7.78;;;3.58;;
64075;SDS011;50327;51.328;12.324;2023-11-19T00:06:33;9.27;;;4.20;;
64075;SDS011;50327;51.328;12.324;2023-11-19T00:08:58;8.10;;;3.75;;
64075;SDS011;50327;51.328;12.324;2023-11-19T00:11:25;6.32;;;2.92;;
64075;SDS011;50327;51.328;12.324;2023-11-19T00:13:50;6.72;;;3.10;;
64075;SDS011;50327;51.328;12.324;2023-11-19T00:16:15;8.23;;;2.92;;
64075;SDS011;50327;51.328;12.324;2023-11-19T00:18:41;5.53;;;2.80;;
64075;SDS011;50327;51.328;12.324;2023-11-19T00:21:06;5.20;;;2.60;;
64075;SDS011;50327;51.328;12.324;2023-11-19T00:23:33;5.57;;;2.85;;
64075;SDS011;50327;51.328;12.324;2023-11-19T00:25:58;6.30;;;3.05;;
64075;SDS011;50327;51.328;12.324;2023-11-19T00:28:23;4.88;;;2.35;;
64075;SDS011;50327;51.328;12.324;2023-11-19T00:30:49;4.93;;;2.33;;
64075;SDS011;50327;51.328;12.324;2023-11-19T00:33:14;4.97;;;2.15;;
64075;SDS011;50327;51.328;12.324;2023-11-19T00:35:39;4.65;;;2.00;;
64075;SDS011;50327;51.328;12.324;2023-11-19T00:38:04;4.97;;;2.00;;
64075;SDS011;50327;51.328;12.324;2023-11-19T00:40:29;6.63;;;2.30;;
64075;SDS011;50327;51.328;12.324;2023-11-19T00:42:55;6.35;;;1.92;;
64075;SDS011;50327;51.328;12.324;2023-11-19T00:45:20;4.90;;;2.00;;
64075;SDS011;50327;51.328;12.324;2023-11-19T00:47:45;4.40;;;1.92;;
64075;SDS011;50327;51.328;12.324;2023-11-19T00:50:11;3.50;;;1.73;;
64075;SDS011;50327;51.328;12.324;2023-11-19T00:52:39;3.05;;;1.60;;
64075;SDS011;50327;51.328;12.324;2023-11-19T00:55:04;8.20;;;1.70;;
64075;SDS011;50327;51.328;12.324;2023-11-19T00:57:32;2.90;;;1.50;;
64075;SDS011;50327;51.328;12.324;2023-11-19T00:59:58;2.97;;;1.50;;
64075;SDS011;50327;51.328;12.324;2023-11-19T01:02:23;3.95;;;1.90;;
64075;SDS011;50327;51.328;12.324;2023-11-19T01:04:49;2.25;;;1.50;;
64075;SDS011;50327;51.328;12.324;2023-11-19T01:07:14;2.25;;;1.40;;
64075;SDS011;50327;51.328;12.324;2023-11-19T01:09:41;1.80;;;1.10;;
64075;SDS011;50327;51.328;12.324;2023-11-19T01:12:06;1.95;;;1.27;;
64075;SDS011;50327;51.328;12.324;2023-11-19T01:14:31;4.40;;;1.48;;
64075;SDS011;50327;51.328;12.324;2023-11-19T01:16:57;2.97;;;1.50;;
64075;SDS011;50327;51.328;12.324;2023-11-19T01:19:22;2.47;;;1.33;;
64075;SDS011;50327;51.328;12.324;2023-11-19T01:21:48;6.32;;;1.30;;
64075;SDS011;50327;51.328;12.324;2023-11-19T01:24:13;3.00;;;1.58;;
64075;SDS011;50327;51.328;12.324;2023-11-19T01:26:39;6.55;;;1.80;;
64075;SDS011;50327;51.328;12.324;2023-11-19T01:29:09;2.95;;;1.60;;
64075;SDS011;50327;51.328;12.324;2023-11-19T01:31:34;3.47;;;1.60;;
64075;SDS011;50327;51.328;12.324;2023-11-19T01:33:59;2.95;;;1.48;;
64075;SDS011;50327;51.328;12.324;2023-11-19T01:36:24;3.17;;;1.70;;
64075;SDS011;50327;51.328;12.324;2023-11-19T01:38:49;4.57;;;1.70;;
64075;SDS011;50327;51.328;12.324;2023-11-19T01:41:15;7.15;;;1.88;;
64075;SDS011;50327;51.328;12.324;2023-11-19T01:43:40;5.72;;;2.45;;
64075;SDS011;50327;51.328;12.324;2023-11-19T01:46:08;4.05;;;1.98;;
64075;SDS011;50327;51.328;12.324;2023-11-19T01:51:04;3.30;;;1.63;;
64075;SDS011;50327;51.328;12.324;2023-11-19T01:53:30;2.92;;;1.63;;
64075;SDS011;50327;51.328;12.324;2023-11-19T01:55:56;2.15;;;1.27;;
64075;SDS011;50327;51.328;12.324;2023-11-19T01:58:22;2.60;;;1.40;;
64075;SDS011;50327;51.328;12.324;2023-11-19T02:00:48;3.45;;;1.40;;
64075;SDS011;50327;51.328;12.324;2023-11-19T02:03:13;2.22;;;1.40;;
64075;SDS011;50327;51.328;12.324;2023-11-19T02:05:39;2.72;;;1.42;;
64075;SDS011;50327;51.328;12.324;2023-11-19T02:08:04;3.38;;;2.03;;
64075;SDS011;50327;51.328;12.324;2023-11-19T02:10:30;4.38;;;1.63;;
64075;SDS011;50327;51.328;12.324;2023-11-19T02:12:56;3.47;;;1.73;;
64075;SDS011;50327;51.328;12.324;2023-11-19T02:15:22;3.97;;;1.73;;
64075;SDS011;50327;51.328;12.324;2023-11-19T02:17:49;3.22;;;1.70;;
64075;SDS011;50327;51.328;12.324;2023-11-19T02:20:14;5.15;;;1.60;;
64075;SDS011;50327;51.328;12.324;2023-11-19T02:22:40;3.65;;;1.65;;
64075;SDS011;50327;51.328;12.324;2023-11-19T02:25:10;2.70;;;1.60;;
64075;SDS011;50327;51.328;12.324;2023-11-19T02:27:46;3.80;;;2.00;;
64075;SDS011;50327;51.328;12.324;2023-11-19T02:30:12;2.13;;;1.30;;
64075;SDS011;50327;51.328;12.324;2023-11-19T02:32:40;4.55;;;2.20;;
64075;SDS011;50327;51.328;12.324;2023-11-19T02:35:06;2.47;;;1.30;;
64075;SDS011;50327;51.328;12.324;2023-11-19T02:37:32;2.88;;;1.73;;
64075;SDS011;50327;51.328;12.324;2023-11-19T02:39:58;2.55;;;1.40;;
64075;SDS011;50327;51.328;12.324;2023-11-19T02:42:34;3.05;;;1.60;;
64075;SDS011;50327;51.328;12.324;2023-11-19T02:44:59;4.20;;;1.70;;
64075;SDS011;50327;51.328;12.324;2023-11-19T02:47:24;2.72;;;1.83;;
64075;SDS011;50327;51.328;12.324;2023-11-19T02:49:50;4.70;;;2.22;;
64075;SDS011;50327;51.328;12.324;2023-11-19T02:52:15;4.82;;;2.38;;
64075;SDS011;50327;51.328;12.324;2023-11-19T02:54:42;3.08;;;1.77;;
64075;SDS011;50327;51.328;12.324;2023-11-19T02:57:07;3.60;;;1.75;;
64075;SDS011;50327;51.328;12.324;2023-11-19T02:59:35;2.65;;;1.25;;
64075;SDS011;50327;51.328;12.324;2023-11-19T03:02:04;3.40;;;1.65;;
64075;SDS011;50327;51.328;12.324;2023-11-19T03:04:31;5.03;;;1.90;;
64075;SDS011;50327;51.328;12.324;2023-11-19T03:06:56;13.32;;;2.03;;
64075;SDS011;50327;51.328;12.324;2023-11-19T03:09:23;2.78;;;1.58;;
64075;SDS011;50327;51.328;12.324;2023-11-19T03:11:49;2.97;;;1.33;;
64075;SDS011;50327;51.328;12.324;2023-11-19T03:14:14;2.88;;;1.35;;
64075;SDS011;50327;51.328;12.324;2023-11-19T03:16:40;2.90;;;1.77;;
64075;SDS011;50327;51.328;12.324;2023-11-19T03:19:05;2.28;;;1.33;;
64075;SDS011;50327;51.328;12.324;2023-11-19T03:21:30;2.90;;;1.50;;
64075;SDS011;50327;51.328;12.324;2023-11-19T03:23:56;3.10;;;1.63;;
64075;SDS011;50327;51.328;12.324;2023-11-19T03:26:21;3.50;;;1.35;;
64075;SDS011;50327;51.328;12.324;2023-11-19T03:28:47;3.05;;;1.45;;
64075;SDS011;50327;51.328;12.324;2023-11-19T03:31:12;2.72;;;1.10;;
64075;SDS011;50327;51.328;12.324;2023-11-19T03:33:37;2.35;;;1.40;;
64075;SDS011;50327;51.328;12.324;2023-11-19T03:36:03;4.70;;;1.25;;
64075;SDS011;50327;51.328;12.324;2023-11-19T03:38:28;4.03;;;1.63;;
64075;SDS011;50327;51.328;12.324;2023-11-19T03:40:53;2.28;;;1.30;;
64075;SDS011;50327;51.328;12.324;2023-11-19T03:43:18;2.28;;;1.30;;
64075;SDS011;50327;51.328;12.324;2023-11-19T03:45:44;2.65;;;1.30;;
64075;SDS011;50327;51.328;12.324;2023-11-19T03:48:09;3.35;;;1.73;;
64075;SDS011;50327;51.328;12.324;2023-11-19T03:50:34;4.68;;;1.15;;
64075;SDS011;50327;51.328;12.324;2023-11-19T03:53:00;3.42;;;1.25;;
64075;SDS011;50327;51.328;12.324;2023-11-19T03:55:25;2.30;;;1.10;;
64075;SDS011;50327;51.328;12.324;2023-11-19T03:57:50;1.88;;;1.20;;
64075;SDS011;50327;51.328;12.324;2023-11-19T04:00:15;5.55;;;1.25;;
64075;SDS011;50327;51.328;12.324;2023-11-19T04:02:41;2.47;;;1.05;;
64075;SDS011;50327;51.328;12.324;2023-11-19T04:05:06;2.17;;;1.23;;
64075;SDS011;50327;51.328;12.324;2023-11-19T04:07:32;3.03;;;1.13;;
64075;SDS011;50327;51.328;12.324;2023-11-19T04:09:57;3.25;;;1.30;;
64075;SDS011;50327;51.328;12.324;2023-11-19T04:12:22;1.65;;;0.90;;
64075;SDS011;50327;51.328;12.324;2023-11-19T04:14:48;2.88;;;0.98;;
64075;SDS011;50327;51.328;12.324;2023-11-19T04:17:13;2.03;;;0.90;;
64075;SDS011;50327;51.328;12.324;2023-11-19T04:19:38;2.72;;;1.02;;
64075;SDS011;50327;51.328;12.324;2023-11-19T04:22:06;1.58;;;0.80;;
64075;SDS011;50327;51.328;12.324;2023-11-19T04:24:31;0.77;;;0.70;;
64075;SDS011;50327;51.328;12.324;2023-11-19T04:26:57;4.68;;;1.00;;
64075;SDS011;50327;51.328;12.324;2023-11-19T04:29:22;0.95;;;0.65;;
64075;SDS011;50327;51.328;12.324;2023-11-19T04:31:48;1.25;;;0.82;;
64075;SDS011;50327;51.328;12.324;2023-11-19T04:34:13;1.65;;;0.80;;
64075;SDS011;50327;51.328;12.324;2023-11-19T04:36:38;1.08;;;0.70;;
64075;SDS011;50327;51.328;12.324;2023-11-19T04:39:04;1.77;;;0.90;;
64075;SDS011;50327;51.328;12.324;2023-11-19T04:41:49;2.22;;;1.05;;
64075;SDS011;50327;51.328;12.324;2023-11-19T04:44:15;1.73;;;1.05;;
64075;SDS011;50327;51.328;12.324;2023-11-19T04:46:40;1.20;;;0.80;;
64075;SDS011;50327;51.328;12.324;2023-11-19T04:49:06;2.15;;;0.98;;
64075;SDS011;50327;51.328;12.324;2023-11-19T04:51:31;2.15;;;1.00;;
64075;SDS011;50327;51.328;12.324;2023-11-19T04:53:56;0.70;;;0.60;;
64075;SDS011;50327;51.328;12.324;2023-11-19T04:56:21;1.98;;;0.80;;
64075;SDS011;50327;51.328;12.324;2023-11-19T04:58:48;1.27;;;0.75;;
64075;SDS011;50327;51.328;12.324;2023-11-19T05:01:13;1.25;;;0.80;;
64075;SDS011;50327;51.328;12.324;2023-11-19T05:03:40;0.98;;;0.75;;
64075;SDS011;50327;51.328;12.324;2023-11-19T05:06:06;0.60;;;0.57;;
64075;SDS011;50327;51.328;12.324;2023-11-19T05:08:31;1.92;;;0.90;;
64075;SDS011;50327;51.328;12.324;2023-11-19T05:10:57;0.98;;;0.80;;
64075;SDS011;50327;51.328;12.324;2023-11-19T05:13:22;1.10;;;0.73;;
64075;SDS011;50327;51.328;12.324;2023-11-19T05:15:47;1.38;;;0.88;;
64075;SDS011;50327;51.328;12.324;2023-11-19T05:18:13;2.30;;;1.00;;
64075;SDS011;50327;51.328;12.324;2023-11-19T05:20:38;2.15;;;0.90;;
64075;SDS011;50327;51.328;12.324;2023-11-19T05:23:03;3.92;;;1.27;;
64075;SDS011;50327;51.328;12.324;2023-11-19T05:25:28;3.25;;;1.08;;
64075;SDS011;50327;51.328;12.324;2023-11-19T05:27:53;1.88;;;1.00;;
64075;SDS011;50327;51.328;12.324;2023-11-19T05:30:19;2.13;;;1.15;;
64075;SDS011;50327;51.328;12.324;2023-11-19T05:32:44;1.35;;;0.70;;
64075;SDS011;50327;51.328;12.324;2023-11-19T05:35:10;3.88;;;0.98;;
64075;SDS011;50327;51.328;12.324;2023-11-19T05:37:35;2.88;;;0.88;;
64075;SDS011;50327;51.328;12.324;2023-11-19T05:40:01;0.60;;;0.60;;
64075;SDS011;50327;51.328;12.324;2023-11-19T05:42:28;0.85;;;0.73;;
64075;SDS011;50327;51.328;12.324;2023-11-19T05:44:53;2.17;;;0.60;;
64075;SDS011;50327;51.328;12.324;2023-11-19T05:47:19;1.90;;;0.70;;
64075;SDS011;50327;51.328;12.324;2023-11-19T05:49:44;0.82;;;0.70;;
64075;SDS011;50327;51.328;12.324;2023-11-19T05:52:09;0.80;;;0.60;;
64075;SDS011;50327;51.328;12.324;2023-11-19T05:54:35;0.60;;;0.60;;
64075;SDS011;50327;51.328;12.324;2023-11-19T05:57:04;0.60;;;0.60;;
64075;SDS011;50327;51.328;12.324;2023-11-19T05:59:29;4.15;;;0.88;;
64075;SDS011;50327;51.328;12.324;2023-11-19T06:01:55;1.75;;;0.70;;
64075;SDS011;50327;51.328;12.324;2023-11-19T06:04:20;2.97;;;1.00;;
64075;SDS011;50327;51.328;12.324;2023-11-19T06:06:46;2.15;;;0.90;;
64075;SDS011;50327;51.328;12.324;2023-11-19T06:09:11;2.72;;;0.88;;
64075;SDS011;50327;51.328;12.324;2023-11-19T06:11:37;5.50;;;0.73;;
64075;SDS011;50327;51.328;12.324;2023-11-19T06:14:03;1.90;;;0.52;;
64075;SDS011;50327;51.328;12.324;2023-11-19T06:16:30;1.45;;;0.40;;
64075;SDS011;50327;51.328;12.324;2023-11-19T06:18:55;2.03;;;0.65;;
64075;SDS011;50327;51.328;12.324;2023-11-19T06:21:20;1.10;;;0.65;;
64075;SDS011;50327;51.328;12.324;2023-11-19T06:23:46;1.17;;;0.70;;
64075;SDS011;50327;51.328;12.324;2023-11-19T06:26:11;4.05;;;1.67;;
64075;SDS011;50327;51.328;12.324;2023-11-19T06:28:36;2.55;;;0.80;;
64075;SDS011;50327;51.328;12.324;2023-11-19T06:31:01;2.15;;;0.88;;
64075;SDS011;50327;51.328;12.324;2023-11-19T06:33:28;2.58;;;0.73;;
64075;SDS011;50327;51.328;12.324;2023-11-19T06:35:53;1.30;;;0.80;;
64075;SDS011;50327;51.328;12.324;2023-11-19T06:38:19;4.45;;;0.80;;
64075;SDS011;50327;51.328;12.324;2023-11-19T06:40:44;0.57;;;0.57;;
64075;SDS011;50327;51.328;12.324;2023-11-19T06:43:10;1.38;;;0.70;;
64075;SDS011;50327;51.328;12.324;2023-11-19T06:45:35;1.30;;;0.70;;
64075;SDS011;50327;51.328;12.324;2023-11-19T06:48:02;0.55;;;0.40;;
64075;SDS011;50327;51.328;12.324;2023-11-19T06:50:29;0.65;;;0.60;;
64075;SDS011;50327;51.328;12.324;2023-11-19T06:52:54;0.88;;;0.60;;
64075;SDS011;50327;51.328;12.324;2023-11-19T06:55:19;2.60;;;0.57;;
64075;SDS011;50327;51.328;12.324;2023-11-19T06:57:45;3.90;;;0.88;;
64075;SDS011;50327;51.328;12.324;2023-11-19T07:00:10;1.13;;;0.70;;
64075;SDS011;50327;51.328;12.324;2023-11-19T07:02:36;1.67;;;0.85;;
64075;SDS011;50327;51.328;12.324;2023-11-19T07:05:01;0.95;;;0.77;;
64075;SDS011;50327;51.328;12.324;2023-11-19T07:07:29;2.00;;;0.60;;
64075;SDS011;50327;51.328;12.324;2023-11-19T07:09:55;1.35;;;0.60;;
64075;SDS011;50327;51.328;12.324;2023-11-19T07:12:20;1.85;;;0.80;;
64075;SDS011;50327;51.328;12.324;2023-11-19T07:14:45;2.97;;;0.70;;
64075;SDS011;50327;51.328;12.324;2023-11-19T07:17:11;1.52;;;1.25;;
64075;SDS011;50327;51.328;12.324;2023-11-19T07:19:37;0.95;;;0.63;;
64075;SDS011;50327;51.328;12.324;2023-11-19T07:22:03;2.85;;;0.60;;
64075;SDS011;50327;51.328;12.324;2023-11-19T07:24:28;1.23;;;0.80;;
64075;SDS011;50327;51.328;12.324;2023-11-19T07:26:53;1.38;;;0.88;;
64075;SDS011;50327;51.328;12.324;2023-11-19T07:29:19;0.52;;;0.50;;
64075;SDS011;50327;51.328;12.324;2023-11-19T07:31:44;0.60;;;0.60;;
64075;SDS011;50327;51.328;12.324;2023-11-19T07:34:10;0.70;;;0.70;;
64075;SDS011;50327;51.328;12.324;2023-11-19T07:36:36;1.63;;;0.85;;
64075;SDS011;50327;51.328;12.324;2023-11-19T07:39:01;5.15;;;0.80;;
64075;SDS011;50327;51.328;12.324;2023-11-19T07:41:27;1.50;;;0.73;;
64075;SDS011;50327;51.328;12.324;2023-11-19T07:43:52;0.98;;;0.68;;
64075;SDS011;50327;51.328;12.324;2023-11-19T07:46:18;1.52;;;0.70;;
64075;SDS011;50327;51.328;12.324;2023-11-19T07:48:46;2.47;;;1.00;;
64075;SDS011;50327;51.328;12.324;2023-11-19T07:51:12;2.55;;;0.70;;
64075;SDS011;50327;51.328;12.324;2023-11-19T07:53:38;1.83;;;1.10;;
64075;SDS011;50327;51.328;12.324;2023-11-19T07:56:03;2.83;;;1.23;;
64075;SDS011;50327;51.328;12.324;2023-11-19T07:58:29;1.77;;;1.00;;
64075;SDS011;50327;51.328;12.324;2023-11-19T08:00:54;1.63;;;0.90;;
64075;SDS011;50327;51.328;12.324;2023-11-19T08:03:19;3.47;;;1.10;;
64075;SDS011;50327;51.328;12.324;2023-11-19T08:05:45;2.25;;;0.77;;
64075;SDS011;50327;51.328;12.324;2023-11-19T08:08:11;0.82;;;0.60;;
64075;SDS011;50327;51.328;12.324;2023-11-19T08:10:36;2.60;;;1.00;;
64075;SDS011;50327;51.328;12.324;2023-11-19T08:13:01;6.20;;;1.30;;
64075;SDS011;50327;51.328;12.324;2023-11-19T08:15:27;1.70;;;1.00;;
64075;SDS011;50327;51.328;12.324;2023-11-19T08:17:52;3.65;;;1.83;;
64075;SDS011;50327;51.328;12.324;2023-11-19T08:20:18;2.83;;;1.42;;
64075;SDS011;50327;51.328;12.324;2023-11-19T08:22:43;3.80;;;1.00;;
64075;SDS011;50327;51.328;12.324;2023-11-19T08:25:08;0.50;;;0.50;;
64075;SDS011;50327;51.328;12.324;2023-11-19T08:27:34;1.40;;;0.88;;
64075;SDS011;50327;51.328;12.324;2023-11-19T08:29:59;1.70;;;0.98;;
64075;SDS011;50327;51.328;12.324;2023-11-19T08:32:24;0.77;;;0.60;;
64075;SDS011;50327;51.328;12.324;2023-11-19T08:34:50;2.38;;;0.73;;
64075;SDS011;50327;51.328;12.324;2023-11-19T08:37:15;2.67;;;0.80;;
64075;SDS011;50327;51.328;12.324;2023-11-19T08:39:43;2.58;;;1.00;;
64075;SDS011;50327;51.328;12.324;2023-11-19T08:42:08;2.08;;;0.93;;
64075;SDS011;50327;51.328;12.324;2023-11-19T08:44:33;4.50;;;1.30;;
64075;SDS011;50327;51.328;12.324;2023-11-19T08:46:58;5.35;;;1.20;;
64075;SDS011;50327;51.328;12.324;2023-11-19T08:49:23;2.72;;;0.85;;
64075;SDS011;50327;51.328;12.324;2023-11-19T08:51:49;2.20;;;0.98;;
64075;SDS011;50327;51.328;12.324;2023-11-19T08:54:14;1.77;;;1.00;;
64075;SDS011;50327;51.328;12.324;2023-11-19T08:56:39;2.63;;;0.85;;
64075;SDS011;50327;51.328;12.324;2023-11-19T08:59:05;3.15;;;1.08;;
64075;SDS011;50327;51.328;12.324;2023-11-19T09:01:30;3.78;;;1.00;;
64075;SDS011;50327;51.328;12.324;2023-11-19T09:03:55;6.57;;;1.10;;
64075;SDS011;50327;51.328;12.324;2023-11-19T09:06:20;5.97;;;1.13;;
64075;SDS011;50327;51.328;12.324;2023-11-19T09:08:46;1.45;;;0.90;;
64075;SDS011;50327;51.328;12.324;2023-11-19T09:11:11;6.85;;;1.48;;
64075;SDS011;50327;51.328;12.324;2023-11-19T09:13:36;5.97;;;1.40;;
64075;SDS011;50327;51.328;12.324;2023-11-19T09:16:03;8.70;;;2.45;;
64075;SDS011;50327;51.328;12.324;2023-11-19T09:18:29;6.20;;;2.17;;
64075;SDS011;50327;51.328;12.324;2023-11-19T09:20:54;4.72;;;1.45;;
64075;SDS011;50327;51.328;12.324;2023-11-19T09:23:19;6.95;;;1.52;;
64075;SDS011;50327;51.328;12.324;2023-11-19T09:25:44;4.15;;;1.35;;
64075;SDS011;50327;51.328;12.324;2023-11-19T09:28:10;3.60;;;1.38;;
64075;SDS011;50327;51.328;12.324;2023-11-19T09:30:35;5.47;;;1.70;;
64075;SDS011;50327;51.328;12.324;2023-11-19T09:33:01;5.13;;;1.60;;
64075;SDS011;50327;51.328;12.324;2023-11-19T09:35:26;8.98;;;1.83;;
64075;SDS011;50327;51.328;12.324;2023-11-19T09:37:51;7.70;;;1.67;;
64075;SDS011;50327;51.328;12.324;2023-11-19T09:40:16;6.70;;;1.88;;
64075;SDS011;50327;51.328;12.324;2023-11-19T09:42:43;5.05;;;1.50;;
64075;SDS011;50327;51.328;12.324;2023-11-19T09:45:12;8.30;;;1.80;;
64075;SDS011;50327;51.328;12.324;2023-11-19T09:47:38;6.90;;;1.73;;
64075;SDS011;50327;51.328;12.324;2023-11-19T09:50:04;4.22;;;1.60;;
64075;SDS011;50327;51.328;12.324;2023-11-19T09:52:30;2.65;;;1.20;;
64075;SDS011;50327;51.328;12.324;2023-11-19T09:54:55;7.57;;;1.35;;
64075;SDS011;50327;51.328;12.324;2023-11-19T09:57:20;6.50;;;1.55;;
64075;SDS011;50327;51.328;12.324;2023-11-19T09:59:46;7.53;;;1.48;;
64075;SDS011;50327;51.328;12.324;2023-11-19T10:02:11;2.60;;;1.30;;
64075;SDS011;50327;51.328;12.324;2023-11-19T10:04:37;5.57;;;1.52;;
64075;SDS011;50327;51.328;12.324;2023-11-19T10:07:03;4.13;;;1.17;;
64075;SDS011;50327;51.328;12.324;2023-11-19T10:09:28;3.22;;;1.40;;
64075;SDS011;50327;51.328;12.324;2023-11-19T10:11:54;2.25;;;1.13;;
64075;SDS011;50327;51.328;12.324;2023-11-19T10:14:20;6.75;;;1.40;;
64075;SDS011;50327;51.328;12.324;2023-11-19T10:16:47;5.80;;;1.63;;
64075;SDS011;50327;51.328;12.324;2023-11-19T10:19:18;5.22;;;1.10;;
64075;SDS011;50327;51.328;12.324;2023-11-19T10:21:44;6.22;;;1.58;;
64075;SDS011;50327;51.328;12.324;2023-11-19T10:24:11;7.20;;;1.23;;
64075;SDS011;50327;51.328;12.324;2023-11-19T10:26:36;3.97;;;1.10;;
64075;SDS011;50327;51.328;12.324;2023-11-19T10:29:02;6.18;;;1.42;;
64075;SDS011;50327;51.328;12.324;2023-11-19T10:31:27;3.63;;;1.10;;
64075;SDS011;50327;51.328;12.324;2023-11-19T10:33:52;10.00;;;1.23;;
64075;SDS011;50327;51.328;12.324;2023-11-19T10:36:18;7.43;;;1.52;;
64075;SDS011;50327;51.328;12.324;2023-11-19T10:38:56;8.93;;;1.55;;
64075;SDS011;50327;51.328;12.324;2023-11-19T10:41:31;5.03;;;1.70;;
64075;SDS011;50327;51.328;12.324;2023-11-19T10:43:57;4.95;;;1.92;;
64075;SDS011;50327;51.328;12.324;2023-11-19T10:46:22;6.38;;;1.60;;
64075;SDS011;50327;51.328;12.324;2023-11-19T10:48:48;5.32;;;1.58;;
64075;SDS011;50327;51.328;12.324;2023-11-19T10:51:13;5.20;;;1.48;;
64075;SDS011;50327;51.328;12.324;2023-11-19T10:53:46;4.32;;;1.15;;
64075;SDS011;50327;51.328;12.324;2023-11-19T10:56:11;7.15;;;2.17;;
64075;SDS011;50327;51.328;12.324;2023-11-19T10:58:42;7.70;;;1.48;;
64075;SDS011;50327;51.328;12.324;2023-11-19T11:01:12;6.65;;;1.25;;
64075;SDS011;50327;51.328;12.324;2023-11-19T11:03:39;5.25;;;1.25;;
64075;SDS011;50327;51.328;12.324;2023-11-19T11:06:05;13.43;;;1.75;;
64075;SDS011;50327;51.328;12.324;2023-11-19T11:08:30;5.03;;;1.40;;
64075;SDS011;50327;51.328;12.324;2023-11-19T11:10:56;9.32;;;1.50;;
64075;SDS011;50327;51.328;12.324;2023-11-19T11:13:23;5.53;;;1.38;;
64075;SDS011;50327;51.328;12.324;2023-11-19T11:15:55;11.95;;;2.03;;
64075;SDS011;50327;51.328;12.324;2023-11-19T11:18:21;9.95;;;1.60;;
64075;SDS011;50327;51.328;12.324;2023-11-19T11:20:47;7.82;;;1.58;;
64075;SDS011;50327;51.328;12.324;2023-11-19T11:26:08;18.42;;;2.53;;
64075;SDS011;50327;51.328;12.324;2023-11-19T11:31:09;10.68;;;1.73;;
64075;SDS011;50327;51.328;12.324;2023-11-19T11:33:53;8.88;;;1.60;;
64075;SDS011;50327;51.328;12.324;2023-11-19T11:36:24;13.18;;;2.35;;
64075;SDS011;50327;51.328;12.324;2023-11-19T11:38:50;15.07;;;2.25;;
64075;SDS011;50327;51.328;12.324;2023-11-19T11:41:19;9.52;;;2.25;;
64075;SDS011;50327;51.328;12.324;2023-11-19T11:43:45;11.77;;;2.08;;
64075;SDS011;50327;51.328;12.324;2023-11-19T11:46:56;12.80;;;2.17;;
64075;SDS011;50327;51.328;12.324;2023-11-19T11:48:57;6.75;;;1.58;;
64075;SDS011;50327;51.328;12.324;2023-11-19T11:54:07;14.63;;;2.45;;
64075;SDS011;50327;51.328;12.324;2023-11-19T11:56:33;15.07;;;2.63;;
64075;SDS011;50327;51.328;12.324;2023-11-19T11:58:59;17.17;;;2.05;;
64075;SDS011;50327;51.328;12.324;2023-11-19T12:01:25;12.20;;;3.00;;
64075;SDS011;50327;51.328;12.324;2023-11-19T12:03:55;15.63;;;2.00;;
64075;SDS011;50327;51.328;12.324;2023-11-19T12:06:21;17.60;;;2.30;;
64075;SDS011;50327;51.328;12.324;2023-11-19T12:08:46;16.77;;;2.95;;
64075;SDS011;50327;51.328;12.324;2023-11-19T12:11:11;15.88;;;2.40;;
64075;SDS011;50327;51.328;12.324;2023-11-19T12:13:46;8.55;;;1.77;;
64075;SDS011;50327;51.328;12.324;2023-11-19T12:16:12;16.52;;;2.80;;
64075;SDS011;50327;51.328;12.324;2023-11-19T12:18:38;20.35;;;2.47;;
64075;SDS011;50327;51.328;12.324;2023-11-19T12:21:04;11.75;;;1.98;;
64075;SDS011;50327;51.328;12.324;2023-11-19T12:23:30;14.70;;;2.75;;
64075;SDS011;50327;51.328;12.324;2023-11-19T12:25:56;16.17;;;2.33;;
64075;SDS011;50327;51.328;12.324;2023-11-19T12:28:22;17.17;;;2.05;;
64075;SDS011;50327;51.328;12.324;2023-11-19T12:30:49;9.02;;;1.77;;
64075;SDS011;50327;51.328;12.324;2023-11-19T12:33:14;18.58;;;3.20;;
64075;SDS011;50327;51.328;12.324;2023-11-19T12:38:05;18.30;;;2.70;;
64075;SDS011;50327;51.328;12.324;2023-11-19T12:40:30;20.83;;;3.00;;
64075;SDS011;50327;51.328;12.324;2023-11-19T12:42:56;12.57;;;2.25;;
64075;SDS011;50327;51.328;12.324;2023-11-19T12:45:22;14.40;;;2.25;;
64075;SDS011;50327;51.328;12.324;2023-11-19T12:47:48;18.17;;;2.40;;
64075;SDS011;50327;51.328;12.324;2023-11-19T12:50:14;12.85;;;2.60;;
64075;SDS011;50327;51.328;12.324;2023-11-19T12:52:40;15.95;;;2.42;;
64075;SDS011;50327;51.328;12.324;2023-11-19T12:55:23;26.40;;;3.10;;
64075;SDS011;50327;51.328;12.324;2023-11-19T12:57:49;19.52;;;2.20;;
64075;SDS011;50327;51.328;12.324;2023-11-19T13:00:18;15.63;;;2.33;;
64075;SDS011;50327;51.328;12.324;2023-11-19T13:02:47;13.80;;;2.38;;
64075;SDS011;50327;51.328;12.324;2023-11-19T13:05:25;14.75;;;2.05;;
64075;SDS011;50327;51.328;12.324;2023-11-19T13:10:27;15.57;;;2.55;;
64075;SDS011;50327;51.328;12.324;2023-11-19T13:13:05;14.13;;;2.00;;
64075;SDS011;50327;51.328;12.324;2023-11-19T13:15:31;9.85;;;1.60;;
64075;SDS011;50327;51.328;12.324;2023-11-19T13:17:57;13.02;;;2.00;;
64075;SDS011;50327;51.328;12.324;2023-11-19T13:20:22;14.18;;;2.40;;
64075;SDS011;50327;51.328;12.324;2023-11-19T13:22:54;12.10;;;1.80;;
64075;SDS011;50327;51.328;12.324;2023-11-19T13:25:19;17.23;;;2.53;;
64075;SDS011;50327;51.328;12.324;2023-11-19T13:27:45;8.02;;;2.13;;
64075;SDS011;50327;51.328;12.324;2023-11-19T13:30:11;18.17;;;2.63;;
64075;SDS011;50327;51.328;12.324;2023-11-19T13:32:36;12.25;;;2.28;;
64075;SDS011;50327;51.328;12.324;2023-11-19T13:35:02;15.18;;;3.22;;
64075;SDS011;50327;51.328;12.324;2023-11-19T13:37:28;11.90;;;2.28;;
64075;SDS011;50327;51.328;12.324;2023-11-19T13:39:53;13.57;;;2.63;;
64075;SDS011;50327;51.328;12.324;2023-11-19T13:42:18;14.25;;;2.10;;
64075;SDS011;50327;51.328;12.324;2023-11-19T13:44:43;13.10;;;2.10;;
64075;SDS011;50327;51.328;12.324;2023-11-19T13:47:09;15.63;;;3.17;;
64075;SDS011;50327;51.328;12.324;2023-11-19T13:49:34;11.65;;;2.00;;
64075;SDS011;50327;51.328;12.324;2023-11-19T13:51:59;12.40;;;2.22;;
64075;SDS011;50327;51.328;12.324;2023-11-19T13:54:24;8.32;;;1.83;;
64075;SDS011;50327;51.328;12.324;2023-11-19T13:56:50;18.67;;;2.85;;
64075;SDS011;50327;51.328;12.324;2023-11-19T13:59:17;13.20;;;2.30;;
64075;SDS011;50327;51.328;12.324;2023-11-19T14:01:43;17.98;;;2.65;;
64075;SDS011;50327;51.328;12.324;2023-11-19T14:04:08;17.15;;;2.25;;
64075;SDS011;50327;51.328;12.324;2023-11-19T14:06:34;13.73;;;2.78;;
64075;SDS011;50327;51.328;12.324;2023-11-19T14:08:59;18.08;;;3.00;;
64075;SDS011;50327;51.328;12.324;2023-11-19T14:11:24;10.63;;;2.25;;
64075;SDS011;50327;51.328;12.324;2023-11-19T14:13:49;13.15;;;2.15;;
64075;SDS011;50327;51.328;12.324;2023-11-19T14:16:15;12.95;;;2.58;;
64075;SDS011;50327;51.328;12.324;2023-11-19T14:18:41;15.20;;;2.08;;
64075;SDS011;50327;51.328;12.324;2023-11-19T14:21:06;16.73;;;2.20;;
64075;SDS011;50327;51.328;12.324;2023-11-19T14:23:31;15.13;;;2.75;;
64075;SDS011;50327;51.328;12.324;2023-11-19T14:25:56;18.55;;;3.42;;
64075;SDS011;50327;51.328;12.324;2023-11-19T14:28:21;12.95;;;2.10;;
64075;SDS011;50327;51.328;12.324;2023-11-19T14:30:47;17.27;;;3.47;;
64075;SDS011;50327;51.328;12.324;2023-11-19T14:33:18;18.58;;;1.95;;
64075;SDS011;50327;51.328;12.324;2023-11-19T14:35:43;18.35;;;2.53;;
64075;SDS011;50327;51.328;12.324;2023-11-19T14:38:09;15.63;;;2.10;;
64075;SDS011;50327;51.328;12.324;2023-11-19T14:40:34;10.27;;;2.33;;